In Rescue
 
Open Full Screen Window  High Contrast Mode
November 29, 2022 8:55 AM EST
Weather Information
Wind Direction
  ---
Wind Speed
  00 kt (0 mph)
Wind Gust
  00 kt (0 mph)
Altimeter
30.30 in
Visibility
9 SM
Temperature
-00° C
32° F
Dewpoint
-00° C
32° F
Humidity
100%
1hr Rain Fall
00.00 in.
24hr Rain Fall
00.00 in.
Sky Condition
Overcast @ 3,600 ft
VFR

METAR KUKT 291355Z AUTO 00000KT 9SM OVC036 M00/M00 A3030 RMK A01

FAA Disclaimer: The data displayed is for advisory purposes only and is not to be used for flight planning or operations.